NCAR-RAP Real-Time Weather Data

Output produced by METARs form (23 February 2020  01:21 UTC)
found at http://weather.rap.ucar.edu/surface/
 
KIPT 230054Z 00000KT 10SM CLR 01/M11 A3020 RMK AO2 SLP233 T00111106
KIPT 222354Z 00000KT 10SM CLR 03/M12 A3019 RMK AO2 SLP228 T00331122 10111 20033 53011
KIPT 222254Z 26005KT 10SM CLR 06/M13 A3016 RMK AO2 SLP218 T00611133